sensor_id;sensor_type;location;lat;lon;timestamp;pressure;altitude;pressure_sealevel;temperature;humidity
81379;BME280;70830;42.290;-71.354;2024-01-25T00:01:41;102347.59;;;3.01;79.89
81379;BME280;70830;42.290;-71.354;2024-01-25T00:04:07;102352.97;;;3.08;80.62
81379;BME280;70830;42.290;-71.354;2024-01-25T00:06:34;102350.38;;;3.10;80.31
81379;BME280;70830;42.290;-71.354;2024-01-25T00:09:00;102336.44;;;3.06;80.64
81379;BME280;70830;42.290;-71.354;2024-01-25T00:11:26;102340.00;;;3.13;80.62
81379;BME280;70830;42.290;-71.354;2024-01-25T00:13:52;102330.41;;;3.10;80.28
81379;BME280;70830;42.290;-71.354;2024-01-25T00:16:18;102319.91;;;3.06;80.60
81379;BME280;70830;42.290;-71.354;2024-01-25T00:18:44;102326.91;;;3.10;80.14
81379;BME280;70830;42.290;-71.354;2024-01-25T00:21:10;102340.09;;;3.19;80.75
81379;BME280;70830;42.290;-71.354;2024-01-25T00:23:36;102324.38;;;3.13;79.97
81379;BME280;70830;42.290;-71.354;2024-01-25T00:26:02;102320.94;;;3.17;80.32
81379;BME280;70830;42.290;-71.354;2024-01-25T00:28:28;102310.47;;;3.12;80.38
81379;BME280;70830;42.290;-71.354;2024-01-25T00:30:54;102293.03;;;3.10;80.17
81379;BME280;70830;42.290;-71.354;2024-01-25T00:33:20;102295.78;;;3.17;80.07
81379;BME280;70830;42.290;-71.354;2024-01-25T00:35:46;102277.41;;;3.08;80.42
81379;BME280;70830;42.290;-71.354;2024-01-25T00:38:12;102276.59;;;3.12;80.25
81379;BME280;70830;42.290;-71.354;2024-01-25T00:40:39;102286.31;;;3.22;80.43
81379;BME280;70830;42.290;-71.354;2024-01-25T00:43:05;102278.47;;;3.22;80.43
81379;BME280;70830;42.290;-71.354;2024-01-25T00:45:31;102280.22;;;3.23;80.37
81379;BME280;70830;42.290;-71.354;2024-01-25T00:47:59;102280.28;;;3.26;80.37
81379;BME280;70830;42.290;-71.354;2024-01-25T00:50:25;102246.16;;;3.10;79.92
81379;BME280;70830;42.290;-71.354;2024-01-25T00:52:52;102278.56;;;3.30;80.47
81379;BME280;70830;42.290;-71.354;2024-01-25T00:55:18;102263.81;;;3.29;80.50
81379;BME280;70830;42.290;-71.354;2024-01-25T00:57:45;102265.59;;;3.33;80.46
81379;BME280;70830;42.290;-71.354;2024-01-25T01:00:11;102269.09;;;3.35;79.80
81379;BME280;70830;42.290;-71.354;2024-01-25T01:02:44;102256.06;;;3.36;79.88
81379;BME280;70830;42.290;-71.354;2024-01-25T01:05:11;102224.59;;;3.21;79.93
81379;BME280;70830;42.290;-71.354;2024-01-25T01:07:38;102256.97;;;3.38;79.62
81379;BME280;70830;42.290;-71.354;2024-01-25T01:10:08;102230.84;;;3.34;80.74
81379;BME280;70830;42.290;-71.354;2024-01-25T01:12:35;102220.41;;;3.34;80.42
81379;BME280;70830;42.290;-71.354;2024-01-25T01:15:01;102224.84;;;3.39;80.83
81379;BME280;70830;42.290;-71.354;2024-01-25T01:17:28;102197.78;;;3.30;80.13
81379;BME280;70830;42.290;-71.354;2024-01-25T01:19:54;102219.69;;;3.47;80.67
81379;BME280;70830;42.290;-71.354;2024-01-25T01:22:19;102214.47;;;3.45;81.15
81379;BME280;70830;42.290;-71.354;2024-01-25T01:24:45;102209.22;;;3.42;80.94
81379;BME280;70830;42.290;-71.354;2024-01-25T01:27:12;102202.34;;;3.46;81.33
81379;BME280;70830;42.290;-71.354;2024-01-25T01:29:37;102197.19;;;3.53;80.93
81379;BME280;70830;42.290;-71.354;2024-01-25T01:32:03;102192.84;;;3.54;81.09
81379;BME280;70830;42.290;-71.354;2024-01-25T01:34:29;102182.47;;;3.57;80.44
81379;BME280;70830;42.290;-71.354;2024-01-25T01:36:56;102197.38;;;3.68;80.78
81379;BME280;70830;42.290;-71.354;2024-01-25T01:39:22;102200.91;;;3.72;81.24
81379;BME280;70830;42.290;-71.354;2024-01-25T01:41:48;102189.56;;;3.70;80.93
81379;BME280;70830;42.290;-71.354;2024-01-25T01:44:14;102180.91;;;3.71;81.36
81379;BME280;70830;42.290;-71.354;2024-01-25T01:46:41;102192.28;;;3.81;80.99
81379;BME280;70830;42.290;-71.354;2024-01-25T01:49:11;102182.72;;;3.81;80.32
81379;BME280;70830;42.290;-71.354;2024-01-25T01:51:38;102180.97;;;3.80;80.91
81379;BME280;70830;42.290;-71.354;2024-01-25T01:54:06;102131.16;;;3.56;81.00
81379;BME280;70830;42.290;-71.354;2024-01-25T01:56:33;102172.31;;;3.83;81.01
81379;BME280;70830;42.290;-71.354;2024-01-25T01:59:00;102154.88;;;3.80;80.59
81379;BME280;70830;42.290;-71.354;2024-01-25T02:01:27;102166.28;;;3.87;80.42
81379;BME280;70830;42.290;-71.354;2024-01-25T02:03:53;102156.66;;;3.83;80.94
81379;BME280;70830;42.290;-71.354;2024-01-25T02:06:22;102166.31;;;3.91;81.24
81379;BME280;70830;42.290;-71.354;2024-01-25T02:08:49;102152.41;;;3.94;80.55
81379;BME280;70830;42.290;-71.354;2024-01-25T02:11:17;102148.03;;;3.91;80.93
81379;BME280;70830;42.290;-71.354;2024-01-25T02:13:44;102125.34;;;3.81;80.68
81379;BME280;70830;42.290;-71.354;2024-01-25T02:16:09;102095.69;;;3.70;80.29
81379;BME280;70830;42.290;-71.354;2024-01-25T02:18:36;102135.00;;;3.90;80.14
81379;BME280;70830;42.290;-71.354;2024-01-25T02:21:02;102122.78;;;3.86;80.91
81379;BME280;70830;42.290;-71.354;2024-01-25T02:23:28;102130.66;;;3.90;80.88
81379;BME280;70830;42.290;-71.354;2024-01-25T02:25:54;102118.50;;;3.92;81.55
81379;BME280;70830;42.290;-71.354;2024-01-25T02:28:20;102094.94;;;3.83;81.16
81379;BME280;70830;42.290;-71.354;2024-01-25T02:30:45;102107.19;;;3.90;81.59
81379;BME280;70830;42.290;-71.354;2024-01-25T02:33:11;102108.97;;;3.99;81.56
81379;BME280;70830;42.290;-71.354;2024-01-25T02:35:38;102099.44;;;4.02;81.06
81379;BME280;70830;42.290;-71.354;2024-01-25T02:38:04;102102.97;;;4.04;81.99
81379;BME280;70830;42.290;-71.354;2024-01-25T02:40:30;102095.13;;;4.07;81.21
81379;BME280;70830;42.290;-71.354;2024-01-25T02:42:56;102079.44;;;4.03;82.17
81379;BME280;70830;42.290;-71.354;2024-01-25T02:45:23;102092.56;;;4.13;81.63
81379;BME280;70830;42.290;-71.354;2024-01-25T02:47:49;102089.09;;;4.16;80.94
81379;BME280;70830;42.290;-71.354;2024-01-25T02:50:15;102081.31;;;4.19;81.36
81379;BME280;70830;42.290;-71.354;2024-01-25T02:52:41;102070.88;;;4.17;81.07
81379;BME280;70830;42.290;-71.354;2024-01-25T02:55:08;102064.78;;;4.18;81.08
81379;BME280;70830;42.290;-71.354;2024-01-25T02:57:34;102039.44;;;4.05;80.74
81379;BME280;70830;42.290;-71.354;2024-01-25T03:00:00;102056.94;;;4.17;80.90
81379;BME280;70830;42.290;-71.354;2024-01-25T03:02:26;102042.09;;;4.10;81.15
81379;BME280;70830;42.290;-71.354;2024-01-25T03:04:52;102025.53;;;4.03;80.82
81379;BME280;70830;42.290;-71.354;2024-01-25T03:07:18;102025.59;;;4.12;81.27
81379;BME280;70830;42.290;-71.354;2024-01-25T03:09:44;102022.09;;;4.12;81.43
81379;BME280;70830;42.290;-71.354;2024-01-25T03:12:10;102030.84;;;4.17;80.90
81379;BME280;70830;42.290;-71.354;2024-01-25T03:14:35;102025.66;;;4.23;81.03
81379;BME280;70830;42.290;-71.354;2024-01-25T03:17:01;101996.84;;;4.09;80.41
81379;BME280;70830;42.290;-71.354;2024-01-25T03:19:28;102014.31;;;4.22;81.13
81379;BME280;70830;42.290;-71.354;2024-01-25T03:21:54;101992.53;;;4.16;80.80
81379;BME280;70830;42.290;-71.354;2024-01-25T03:24:21;101991.66;;;4.14;80.61
81379;BME280;70830;42.290;-71.354;2024-01-25T03:26:47;101991.69;;;4.17;80.70
81379;BME280;70830;42.290;-71.354;2024-01-25T03:29:14;101986.44;;;4.14;81.05
81379;BME280;70830;42.290;-71.354;2024-01-25T03:31:40;101990.81;;;4.15;80.57
81379;BME280;70830;42.290;-71.354;2024-01-25T03:34:06;101977.72;;;4.13;80.62
81379;BME280;70830;42.290;-71.354;2024-01-25T03:36:32;101969.84;;;4.03;80.58
81379;BME280;70830;42.290;-71.354;2024-01-25T03:38:58;101968.97;;;4.02;80.26
81379;BME280;70830;42.290;-71.354;2024-01-25T03:41:24;101951.53;;;3.92;80.46
81379;BME280;70830;42.290;-71.354;2024-01-25T03:43:50;101965.50;;;4.03;80.65
81379;BME280;70830;42.290;-71.354;2024-01-25T03:46:17;101964.63;;;4.00;80.26
81379;BME280;70830;42.290;-71.354;2024-01-25T03:48:43;101954.16;;;3.98;80.68
81379;BME280;70830;42.290;-71.354;2024-01-25T03:51:09;101941.09;;;3.92;80.70
81379;BME280;70830;42.290;-71.354;2024-01-25T03:53:35;101948.06;;;3.95;79.99
81379;BME280;70830;42.290;-71.354;2024-01-25T03:56:01;101938.47;;;3.94;80.82
81379;BME280;70830;42.290;-71.354;2024-01-25T03:58:28;101914.09;;;3.87;80.60
81379;BME280;70830;42.290;-71.354;2024-01-25T04:00:54;101923.69;;;3.91;80.26
81379;BME280;70830;42.290;-71.354;2024-01-25T04:03:20;101908.03;;;3.91;81.14
81379;BME280;70830;42.290;-71.354;2024-01-25T04:05:46;101908.91;;;3.92;81.21
81379;BME280;70830;42.290;-71.354;2024-01-25T04:08:12;101907.19;;;3.98;81.32
81379;BME280;70830;42.290;-71.354;2024-01-25T04:10:38;101917.69;;;4.06;81.00
81379;BME280;70830;42.290;-71.354;2024-01-25T04:13:04;101893.28;;;3.96;81.04
81379;BME280;70830;42.290;-71.354;2024-01-25T04:15:32;101888.94;;;3.97;81.07
81379;BME280;70830;42.290;-71.354;2024-01-25T04:17:57;101902.06;;;4.09;81.05
81379;BME280;70830;42.290;-71.354;2024-01-25T04:20:23;101886.41;;;4.10;80.42
81379;BME280;70830;42.290;-71.354;2024-01-25T04:22:49;101851.56;;;3.98;80.73
81379;BME280;70830;42.290;-71.354;2024-01-25T04:25:15;101841.09;;;3.96;80.80
81379;BME280;70830;42.290;-71.354;2024-01-25T04:27:41;101858.56;;;4.08;81.03
81379;BME280;70830;42.290;-71.354;2024-01-25T04:30:08;101854.22;;;4.10;81.03
81379;BME280;70830;42.290;-71.354;2024-01-25T04:32:34;101847.25;;;4.12;81.42
81379;BME280;70830;42.290;-71.354;2024-01-25T04:35:00;101812.44;;;4.04;81.19
81379;BME280;70830;42.290;-71.354;2024-01-25T04:37:26;101842.06;;;4.19;81.66
81379;BME280;70830;42.290;-71.354;2024-01-25T04:39:52;101823.78;;;4.21;81.56
81379;BME280;70830;42.290;-71.354;2024-01-25T04:42:18;101822.97;;;4.26;81.29
81379;BME280;70830;42.290;-71.354;2024-01-25T04:44:44;101815.16;;;4.31;81.99
81379;BME280;70830;42.290;-71.354;2024-01-25T04:47:10;101796.84;;;4.23;81.40
81379;BME280;70830;42.290;-71.354;2024-01-25T04:49:36;101822.09;;;4.38;81.72
81379;BME280;70830;42.290;-71.354;2024-01-25T04:52:02;101796.84;;;4.40;82.28
81379;BME280;70830;42.290;-71.354;2024-01-25T04:54:28;101782.97;;;4.39;82.26
81379;BME280;70830;42.290;-71.354;2024-01-25T04:56:54;101774.25;;;4.40;81.42
81379;BME280;70830;42.290;-71.354;2024-01-25T04:59:20;101773.38;;;4.47;81.71
81379;BME280;70830;42.290;-71.354;2024-01-25T05:01:46;101767.28;;;4.47;82.28
81379;BME280;70830;42.290;-71.354;2024-01-25T05:04:12;101748.16;;;4.47;81.67
81379;BME280;70830;42.290;-71.354;2024-01-25T05:06:38;101747.28;;;4.51;82.17
81379;BME280;70830;42.290;-71.354;2024-01-25T05:09:04;101724.66;;;4.54;81.93
81379;BME280;70830;42.290;-71.354;2024-01-25T05:11:30;101732.47;;;4.60;82.23
81379;BME280;70830;42.290;-71.354;2024-01-25T05:13:56;101719.41;;;4.60;82.84
81379;BME280;70830;42.290;-71.354;2024-01-25T05:16:22;101703.75;;;4.59;82.92
81379;BME280;70830;42.290;-71.354;2024-01-25T05:18:48;101712.47;;;4.73;82.71
81379;BME280;70830;42.290;-71.354;2024-01-25T05:21:13;101682.00;;;4.66;82.97
81379;BME280;70830;42.290;-71.354;2024-01-25T05:23:39;101690.69;;;4.72;83.02
81379;BME280;70830;42.290;-71.354;2024-01-25T05:26:06;101679.34;;;4.84;83.04
81379;BME280;70830;42.290;-71.354;2024-01-25T05:28:32;101664.56;;;4.89;82.49
81379;BME280;70830;42.290;-71.354;2024-01-25T05:30:58;101660.16;;;4.94;82.83
81379;BME280;70830;42.290;-71.354;2024-01-25T05:33:24;101632.31;;;4.87;82.95
81379;BME280;70830;42.290;-71.354;2024-01-25T05:35:50;101627.94;;;4.92;83.85
81379;BME280;70830;42.290;-71.354;2024-01-25T05:38:15;101645.31;;;5.05;83.69
81379;BME280;70830;42.290;-71.354;2024-01-25T05:40:42;101638.34;;;5.08;83.09
81379;BME280;70830;42.290;-71.354;2024-01-25T05:43:08;101612.22;;;5.05;82.95
81379;BME280;70830;42.290;-71.354;2024-01-25T05:45:33;101608.72;;;5.11;83.12
81379;BME280;70830;42.290;-71.354;2024-01-25T05:47:59;101610.41;;;5.21;83.60
81379;BME280;70830;42.290;-71.354;2024-01-25T05:50:25;101599.97;;;5.21;84.00
81379;BME280;70830;42.290;-71.354;2024-01-25T05:52:51;101605.16;;;5.27;83.87
81379;BME280;70830;42.290;-71.354;2024-01-25T05:55:17;101573.81;;;5.18;83.42
81379;BME280;70830;42.290;-71.354;2024-01-25T05:57:43;101576.38;;;5.27;83.65
81379;BME280;70830;42.290;-71.354;2024-01-25T06:00:11;101588.53;;;5.36;84.42
81379;BME280;70830;42.290;-71.354;2024-01-25T06:02:39;101576.34;;;5.38;83.53
81379;BME280;70830;42.290;-71.354;2024-01-25T06:05:04;101570.22;;;5.43;83.64
81379;BME280;70830;42.290;-71.354;2024-01-25T06:07:30;101565.84;;;5.45;83.51
81379;BME280;70830;42.290;-71.354;2024-01-25T06:09:56;101544.97;;;5.39;83.62
81379;BME280;70830;42.290;-71.354;2024-01-25T06:12:22;101543.16;;;5.50;83.45
81379;BME280;70830;42.290;-71.354;2024-01-25T06:14:48;101531.81;;;5.50;83.50
81379;BME280;70830;42.290;-71.354;2024-01-25T06:17:14;101535.25;;;5.59;83.40
81379;BME280;70830;42.290;-71.354;2024-01-25T06:19:40;101529.97;;;5.62;83.45
81379;BME280;70830;42.290;-71.354;2024-01-25T06:22:06;101507.38;;;5.55;83.49
81379;BME280;70830;42.290;-71.354;2024-01-25T06:24:32;101511.66;;;5.62;83.42
81379;BME280;70830;42.290;-71.354;2024-01-25T06:26:58;101497.72;;;5.62;84.11
81379;BME280;70830;42.290;-71.354;2024-01-25T06:29:24;101515.06;;;5.73;83.45
81379;BME280;70830;42.290;-71.354;2024-01-25T06:31:50;101500.19;;;5.78;84.05
81379;BME280;70830;42.290;-71.354;2024-01-25T06:34:16;101491.44;;;5.81;83.77
81379;BME280;70830;42.290;-71.354;2024-01-25T06:36:42;101499.31;;;5.84;83.93
81379;BME280;70830;42.290;-71.354;2024-01-25T06:39:08;101470.56;;;5.76;84.08
81379;BME280;70830;42.290;-71.354;2024-01-25T06:41:35;101487.03;;;5.92;83.86
81379;BME280;70830;42.290;-71.354;2024-01-25T06:44:01;101482.63;;;5.97;84.44
81379;BME280;70830;42.290;-71.354;2024-01-25T06:46:28;101477.38;;;5.97;84.34
81379;BME280;70830;42.290;-71.354;2024-01-25T06:48:54;101482.53;;;6.05;84.74
81379;BME280;70830;42.290;-71.354;2024-01-25T06:51:20;101483.41;;;6.05;84.42
81379;BME280;70830;42.290;-71.354;2024-01-25T06:53:46;101453.75;;;6.06;83.81
81379;BME280;70830;42.290;-71.354;2024-01-25T06:56:12;101458.94;;;6.11;84.63
81379;BME280;70830;42.290;-71.354;2024-01-25T06:58:38;101464.06;;;6.20;84.11
81379;BME280;70830;42.290;-71.354;2024-01-25T07:01:04;101464.88;;;6.25;84.45
81379;BME280;70830;42.290;-71.354;2024-01-25T07:03:30;101457.84;;;6.30;83.84
81379;BME280;70830;42.290;-71.354;2024-01-25T07:05:56;101441.31;;;6.26;84.42
81379;BME280;70830;42.290;-71.354;2024-01-25T07:08:22;101435.97;;;6.35;84.22
81379;BME280;70830;42.290;-71.354;2024-01-25T07:10:49;101434.16;;;6.39;84.95
81379;BME280;70830;42.290;-71.354;2024-01-25T07:13:15;101436.66;;;6.48;84.35
81379;BME280;70830;42.290;-71.354;2024-01-25T07:15:43;101413.97;;;6.47;84.49
81379;BME280;70830;42.290;-71.354;2024-01-25T07:18:09;101407.69;;;6.60;84.20
81379;BME280;70830;42.290;-71.354;2024-01-25T07:20:35;101416.25;;;6.71;84.20
81379;BME280;70830;42.290;-71.354;2024-01-25T07:23:02;101421.38;;;6.80;85.19
81379;BME280;70830;42.290;-71.354;2024-01-25T07:25:28;101410.00;;;6.84;84.90
81379;BME280;70830;42.290;-71.354;2024-01-25T07:27:54;101421.25;;;6.91;84.37
81379;BME280;70830;42.290;-71.354;2024-01-25T07:30:20;101412.41;;;6.96;84.00
81379;BME280;70830;42.290;-71.354;2024-01-25T07:32:47;101420.19;;;7.02;84.39
81379;BME280;70830;42.290;-71.354;2024-01-25T07:35:13;101405.34;;;7.01;84.20
81379;BME280;70830;42.290;-71.354;2024-01-25T07:37:39;101400.00;;;7.07;84.19
81379;BME280;70830;42.290;-71.354;2024-01-25T07:40:07;101367.84;;;6.96;84.55
81379;BME280;70830;42.290;-71.354;2024-01-25T07:42:33;101381.63;;;7.10;84.56
81379;BME280;70830;42.290;-71.354;2024-01-25T07:44:59;101390.13;;;7.24;85.30
81379;BME280;70830;42.290;-71.354;2024-01-25T07:47:25;101354.50;;;7.13;84.70
81379;BME280;70830;42.290;-71.354;2024-01-25T07:49:51;101376.94;;;7.29;84.38
81379;BME280;70830;42.290;-71.354;2024-01-25T07:52:17;101360.28;;;7.33;84.11
81379;BME280;70830;42.290;-71.354;2024-01-25T07:54:43;101362.03;;;7.32;84.03
81379;BME280;70830;42.290;-71.354;2024-01-25T07:57:10;101368.78;;;7.46;84.87
81379;BME280;70830;42.290;-71.354;2024-01-25T07:59:36;101344.38;;;7.42;84.50
81379;BME280;70830;42.290;-71.354;2024-01-25T08:02:02;101352.06;;;7.53;85.25
81379;BME280;70830;42.290;-71.354;2024-01-25T08:04:28;101353.59;;;7.64;84.71
81379;BME280;70830;42.290;-71.354;2024-01-25T08:06:54;101350.88;;;7.69;84.79
81379;BME280;70830;42.290;-71.354;2024-01-25T08:09:19;101339.44;;;7.71;84.59
81379;BME280;70830;42.290;-71.354;2024-01-25T08:11:45;101329.69;;;7.78;85.27
81379;BME280;70830;42.290;-71.354;2024-01-25T08:14:11;101324.25;;;7.87;84.80
81379;BME280;70830;42.290;-71.354;2024-01-25T08:16:37;101319.66;;;7.98;85.10
81379;BME280;70830;42.290;-71.354;2024-01-25T08:19:03;101320.44;;;8.03;85.06
81379;BME280;70830;42.290;-71.354;2024-01-25T08:21:30;101318.59;;;8.08;84.97
81379;BME280;70830;42.290;-71.354;2024-01-25T08:23:56;101296.75;;;8.06;85.22
81379;BME280;70830;42.290;-71.354;2024-01-25T08:26:21;101282.72;;;8.07;84.95
81379;BME280;70830;42.290;-71.354;2024-01-25T08:28:47;101300.69;;;8.25;84.95
81379;BME280;70830;42.290;-71.354;2024-01-25T08:31:13;101304.88;;;8.37;85.62
81379;BME280;70830;42.290;-71.354;2024-01-25T08:33:41;101313.53;;;8.42;84.90
81379;BME280;70830;42.290;-71.354;2024-01-25T08:36:09;101305.44;;;8.49;86.16
81379;BME280;70830;42.290;-71.354;2024-01-25T08:38:35;101313.22;;;8.54;85.93
81379;BME280;70830;42.290;-71.354;2024-01-25T08:41:01;101293.22;;;8.48;86.29
81379;BME280;70830;42.290;-71.354;2024-01-25T08:43:27;101305.84;;;8.69;87.17
81379;BME280;70830;42.290;-71.354;2024-01-25T08:45:53;101293.44;;;8.76;86.79
81379;BME280;70830;42.290;-71.354;2024-01-25T08:48:20;101279.31;;;8.80;86.11
81379;BME280;70830;42.290;-71.354;2024-01-25T08:50:46;101275.72;;;8.84;86.82
81379;BME280;70830;42.290;-71.354;2024-01-25T08:53:12;101286.69;;;9.01;86.50
81379;BME280;70830;42.290;-71.354;2024-01-25T08:55:39;101265.53;;;9.06;87.17
81379;BME280;70830;42.290;-71.354;2024-01-25T08:58:05;101260.06;;;9.13;86.59
81379;BME280;70830;42.290;-71.354;2024-01-25T09:00:31;101257.28;;;9.18;87.10
81379;BME280;70830;42.290;-71.354;2024-01-25T09:02:57;101259.63;;;9.30;85.81
81379;BME280;70830;42.290;-71.354;2024-01-25T09:05:23;101256.09;;;9.31;86.27
81379;BME280;70830;42.290;-71.354;2024-01-25T09:07:50;101227.28;;;9.26;85.86
81379;BME280;70830;42.290;-71.354;2024-01-25T09:10:16;101239.22;;;9.38;86.06
81379;BME280;70830;42.290;-71.354;2024-01-25T09:12:42;101226.16;;;9.35;85.41
81379;BME280;70830;42.290;-71.354;2024-01-25T09:15:08;101242.59;;;9.43;85.79
81379;BME280;70830;42.290;-71.354;2024-01-25T09:17:34;101231.25;;;9.41;85.46
81379;BME280;70830;42.290;-71.354;2024-01-25T09:20:00;101226.72;;;9.46;85.28
81379;BME280;70830;42.290;-71.354;2024-01-25T09:22:26;101218.03;;;9.42;85.57
81379;BME280;70830;42.290;-71.354;2024-01-25T09:24:53;101200.44;;;9.44;84.92
81379;BME280;70830;42.290;-71.354;2024-01-25T09:27:19;101216.78;;;9.55;85.27
81379;BME280;70830;42.290;-71.354;2024-01-25T09:29:45;101195.88;;;9.51;85.55
81379;BME280;70830;42.290;-71.354;2024-01-25T09:32:10;101188.69;;;9.56;84.64
81379;BME280;70830;42.290;-71.354;2024-01-25T09:34:37;101184.47;;;9.50;84.71
81379;BME280;70830;42.290;-71.354;2024-01-25T09:37:04;101172.09;;;9.54;85.07
81379;BME280;70830;42.290;-71.354;2024-01-25T09:39:31;101178.16;;;9.56;85.07
81379;BME280;70830;42.290;-71.354;2024-01-25T09:41:57;101166.88;;;9.52;85.15
81379;BME280;70830;42.290;-71.354;2024-01-25T09:44:23;101166.81;;;9.54;85.46
81379;BME280;70830;42.290;-71.354;2024-01-25T09:46:51;101183.22;;;9.64;84.81
81379;BME280;70830;42.290;-71.354;2024-01-25T09:49:17;101133.06;;;9.39;84.48
81379;BME280;70830;42.290;-71.354;2024-01-25T09:51:44;101168.44;;;9.58;85.33
81379;BME280;70830;42.290;-71.354;2024-01-25T09:54:10;101170.13;;;9.60;84.69
81379;BME280;70830;42.290;-71.354;2024-01-25T09:56:36;101169.25;;;9.60;85.16
81379;BME280;70830;42.290;-71.354;2024-01-25T09:59:02;101183.97;;;9.67;84.90
81379;BME280;70830;42.290;-71.354;2024-01-25T10:01:30;101184.91;;;9.66;84.57
81379;BME280;70830;42.290;-71.354;2024-01-25T10:03:56;101177.03;;;9.65;84.38
81379;BME280;70830;42.290;-71.354;2024-01-25T10:06:22;101183.13;;;9.67;84.33
81379;BME280;70830;42.290;-71.354;2024-01-25T10:08:48;101177.16;;;9.60;85.13
81379;BME280;70830;42.290;-71.354;2024-01-25T10:11:15;101190.06;;;9.69;84.06
81379;BME280;70830;42.290;-71.354;2024-01-25T10:16:11;101204.03;;;9.71;84.70
81379;BME280;70830;42.290;-71.354;2024-01-25T10:18:38;101209.31;;;9.71;85.11
81379;BME280;70830;42.290;-71.354;2024-01-25T10:21:05;101208.72;;;9.62;84.17
81379;BME280;70830;42.290;-71.354;2024-01-25T10:23:31;101218.06;;;9.73;84.57
81379;BME280;70830;42.290;-71.354;2024-01-25T10:25:58;101204.00;;;9.73;84.42
81379;BME280;70830;42.290;-71.354;2024-01-25T10:28:24;101195.25;;;9.72;84.54
81379;BME280;70830;42.290;-71.354;2024-01-25T10:31:00;101186.47;;;9.73;83.88
81379;BME280;70830;42.290;-71.354;2024-01-25T10:33:27;101189.91;;;9.75;84.38
81379;BME280;70830;42.290;-71.354;2024-01-25T10:35:58;101182.84;;;9.76;83.91
81379;BME280;70830;42.290;-71.354;2024-01-25T10:38:32;101190.72;;;9.77;84.47
81379;BME280;70830;42.290;-71.354;2024-01-25T10:41:01;101195.19;;;9.74;84.50
81379;BME280;70830;42.290;-71.354;2024-01-25T10:43:28;101207.53;;;9.73;83.65
81379;BME280;70830;42.290;-71.354;2024-01-25T10:45:56;101203.28;;;9.68;83.51
81379;BME280;70830;42.290;-71.354;2024-01-25T10:48:26;101205.97;;;9.66;83.39
81379;BME280;70830;42.290;-71.354;2024-01-25T10:50:54;101211.31;;;9.63;83.99
81379;BME280;70830;42.290;-71.354;2024-01-25T10:53:20;101226.16;;;9.66;84.86
81379;BME280;70830;42.290;-71.354;2024-01-25T10:55:47;101219.34;;;9.58;84.47
81379;BME280;70830;42.290;-71.354;2024-01-25T10:58:16;101234.06;;;9.66;84.66
81379;BME280;70830;42.290;-71.354;2024-01-25T11:00:54;101231.44;;;9.66;84.49
81379;BME280;70830;42.290;-71.354;2024-01-25T11:03:27;101222.75;;;9.62;84.43
81379;BME280;70830;42.290;-71.354;2024-01-25T11:05:55;101223.53;;;9.66;83.64
81379;BME280;70830;42.290;-71.354;2024-01-25T11:08:21;101220.22;;;9.59;84.90
81379;BME280;70830;42.290;-71.354;2024-01-25T11:10:52;101217.69;;;9.54;83.85
81379;BME280;70830;42.290;-71.354;2024-01-25T11:13:28;101237.59;;;9.65;83.46
81379;BME280;70830;42.290;-71.354;2024-01-25T11:15:55;101250.66;;;9.68;84.44
81379;BME280;70830;42.290;-71.354;2024-01-25T11:18:24;101240.28;;;9.63;84.84
81379;BME280;70830;42.290;-71.354;2024-01-25T11:20:51;101259.44;;;9.68;84.21
81379;BME280;70830;42.290;-71.354;2024-01-25T11:23:17;101238.69;;;9.57;84.00
81379;BME280;70830;42.290;-71.354;2024-01-25T11:25:47;101242.13;;;9.59;84.79
81379;BME280;70830;42.290;-71.354;2024-01-25T11:28:14;101265.47;;;9.72;83.39
81379;BME280;70830;42.290;-71.354;2024-01-25T11:30:44;101252.56;;;9.63;84.41
81379;BME280;70830;42.290;-71.354;2024-01-25T11:33:11;101273.47;;;9.69;83.37
81379;BME280;70830;42.290;-71.354;2024-01-25T11:35:37;101281.25;;;9.73;82.87
81379;BME280;70830;42.290;-71.354;2024-01-25T11:38:03;101276.00;;;9.72;83.26
81379;BME280;70830;42.290;-71.354;2024-01-25T11:40:29;101262.19;;;9.64;83.85
81379;BME280;70830;42.290;-71.354;2024-01-25T11:42:57;101273.50;;;9.67;83.88
81379;BME280;70830;42.290;-71.354;2024-01-25T11:45:22;101271.03;;;9.61;84.08
81379;BME280;70830;42.290;-71.354;2024-01-25T11:47:49;101267.66;;;9.57;nan
81379;BME280;70830;42.290;-71.354;2024-01-25T11:50:15;101277.19;;;9.60;83.57
81379;BME280;70830;42.290;-71.354;2024-01-25T11:52:41;101273.81;;;9.56;83.71
81379;BME280;70830;42.290;-71.354;2024-01-25T11:55:09;101268.59;;;9.55;84.01
81379;BME280;70830;42.290;-71.354;2024-01-25T11:57:38;101276.50;;;9.55;84.07
81379;BME280;70830;42.290;-71.354;2024-01-25T12:00:08;101261.63;;;9.52;83.80
81379;BME280;70830;42.290;-71.354;2024-01-25T12:02:36;101269.41;;;9.57;83.68
81379;BME280;70830;42.290;-71.354;2024-01-25T12:05:03;101265.97;;;9.55;83.66
81379;BME280;70830;42.290;-71.354;2024-01-25T12:07:33;101275.50;;;9.59;84.18
81379;BME280;70830;42.290;-71.354;2024-01-25T12:10:03;101273.75;;;9.58;84.18
81379;BME280;70830;42.290;-71.354;2024-01-25T12:12:29;101298.31;;;9.58;83.58
81379;BME280;70830;42.290;-71.354;2024-01-25T12:14:59;101268.09;;;9.41;83.24
81379;BME280;70830;42.290;-71.354;2024-01-25T12:17:32;101277.50;;;9.49;82.88
81379;BME280;70830;42.290;-71.354;2024-01-25T12:19:59;101291.34;;;9.57;82.84
81379;BME280;70830;42.290;-71.354;2024-01-25T12:22:29;101295.69;;;9.58;82.71
81379;BME280;70830;42.290;-71.354;2024-01-25T12:24:58;101292.41;;;9.49;82.72
81379;BME280;70830;42.290;-71.354;2024-01-25T12:27:26;101311.53;;;9.57;82.68
81379;BME280;70830;42.290;-71.354;2024-01-25T12:29:53;101318.50;;;9.58;82.39
81379;BME280;70830;42.290;-71.354;2024-01-25T12:32:20;101319.50;;;9.54;81.80
81379;BME280;70830;42.290;-71.354;2024-01-25T12:34:56;101303.94;;;9.45;82.13
81379;BME280;70830;42.290;-71.354;2024-01-25T12:37:22;101297.03;;;9.41;81.74
81379;BME280;70830;42.290;-71.354;2024-01-25T12:39:51;101291.84;;;9.38;82.68